Time;durP1;ratioP1;P1;durP2;ratioP2;P2;SDS_P1;SDS_P2;PMS_P1;PMS_P2;Temp;Humidity;BMP_temperature;BMP_pressure;BME280_temperature;BME280_humidity;BME280_pressure;Samples;Min_cycle;Max_cycle;Signal;HPM_P1;HPM_P2
2021/09/05 00:02:16;;;;;;;;;21.75;20.25;;;;;25.73;52.79;101257.78;5075695;28;51358;-56
2021/09/05 00:04:41;;;;;;;;;20.00;17.00;;;;;25.73;52.85;101257.78;5074396;28;51023;-55
2021/09/05 00:07:07;;;;;;;;;24.00;18.75;;;;;25.72;52.72;101247.78;5071676;28;51013;-55
2021/09/05 00:09:32;;;;;;;;;22.50;17.75;;;;;25.72;52.92;101250.56;5075643;28;51301;-56
2021/09/05 00:11:57;;;;;;;;;22.75;18.75;;;;;25.72;52.97;101246.94;5075590;28;51125;-57
2021/09/05 00:14:23;;;;;;;;;22.00;20.50;;;;;25.71;52.99;101246.09;5075687;28;50923;-55
2021/09/05 00:16:48;;;;;;;;;19.75;15.25;;;;;25.71;52.95;101248.03;5070536;28;52239;-56
2021/09/05 00:19:14;;;;;;;;;18.25;17.00;;;;;25.71;53.10;101239.69;5074358;27;50962;-53
2021/09/05 00:21:39;;;;;;;;;23.25;17.50;;;;;25.71;53.11;101245.25;5068195;28;51881;-56
2021/09/05 00:24:04;;;;;;;;;23.75;22.00;;;;;25.70;53.22;101244.41;5075698;28;50958;-56
2021/09/05 00:26:32;;;;;;;;;22.50;21.00;;;;;25.69;53.17;101253.78;5074349;28;50985;-54
2021/09/05 00:28:57;;;;;;;;;21.00;18.50;;;;;25.70;53.49;101249.97;5075053;28;51114;-55
2021/09/05 00:31:23;;;;;;;;;24.75;23.25;;;;;25.68;53.36;101254.88;5074497;28;51061;-55
2021/09/05 00:33:48;;;;;;;;;20.00;20.00;;;;;25.68;53.22;101257.66;5074611;28;51057;-55
2021/09/05 00:36:13;;;;;;;;;20.50;20.00;;;;;25.68;53.52;101254.06;5075234;28;51928;-55
2021/09/05 00:38:39;;;;;;;;;24.00;19.25;;;;;25.68;53.29;101254.06;5074916;28;51025;-53
2021/09/05 00:41:04;;;;;;;;;24.25;22.50;;;;;25.68;53.41;101257.66;5074736;28;51098;-54
2021/09/05 00:43:30;;;;;;;;;24.00;23.50;;;;;25.67;53.73;101264.31;5057844;28;51221;-55
2021/09/05 00:45:55;;;;;;;;;24.00;23.50;;;;;25.68;53.57;101270.69;5082332;27;51870;-55
2021/09/05 00:48:20;;;;;;;;;29.00;24.50;;;;;25.67;53.81;101269.00;5075193;27;51002;-55
2021/09/05 00:50:46;;;;;;;;;24.00;23.25;;;;;25.68;53.58;101276.25;5061041;27;51090;-56
2021/09/05 00:53:11;;;;;;;;;27.25;23.50;;;;;25.67;53.51;101269.84;5093286;27;51103;-54
2021/09/05 00:55:38;;;;;;;;;28.75;27.00;;;;;25.66;53.37;101259.00;5084328;27;52597;-54
2021/09/05 00:58:08;;;;;;;;;30.00;24.50;;;;;25.66;53.98;101268.19;5084164;27;51324;-55
2021/09/05 01:00:35;;;;;;;;;27.50;23.00;;;;;25.66;53.66;101261.78;5076411;27;51175;-55
2021/09/05 01:03:01;;;;;;;;;26.75;24.00;;;;;25.65;53.76;101257.31;5078167;27;51442;-52
2021/09/05 01:05:27;;;;;;;;;24.50;23.75;;;;;25.65;53.29;101257.31;5075539;27;52142;-58
2021/09/05 01:07:52;;;;;;;;;24.75;23.75;;;;;25.66;53.57;101245.13;5076780;27;51072;-55
2021/09/05 01:10:18;;;;;;;;;28.00;21.25;;;;;25.65;53.79;101258.16;5076237;27;51125;-56
2021/09/05 01:12:43;;;;;;;;;19.50;19.50;;;;;25.65;53.59;101260.94;5090968;27;51021;-59
2021/09/05 01:15:09;;;;;;;;;26.75;24.75;;;;;25.65;53.41;101266.50;5094948;27;50943;-58
2021/09/05 01:17:39;;;;;;;;;22.25;20.25;;;;;25.66;53.35;101268.19;5083313;27;50977;-58
2021/09/05 01:20:09;;;;;;;;;24.50;24.50;;;;;25.66;53.22;101259.00;5075685;27;51053;-58
2021/09/05 01:22:35;;;;;;;;;24.25;22.50;;;;;25.67;53.34;101255.16;5076188;27;51196;-58
2021/09/05 01:25:00;;;;;;;;;22.00;21.75;;;;;25.66;53.53;101248.75;5083512;27;51920;-58
2021/09/05 01:27:26;;;;;;;;;22.25;21.00;;;;;25.67;53.58;101252.38;5084456;27;51214;-53
2021/09/05 01:29:52;;;;;;;;;26.25;25.50;;;;;25.67;53.30;101252.38;5079341;27;51166;-55
2021/09/05 01:32:18;;;;;;;;;21.50;20.50;;;;;25.66;53.30;101251.53;5076766;27;51094;-55
2021/09/05 01:34:43;;;;;;;;;23.50;22.00;;;;;25.66;53.60;101251.53;5075320;27;51745;-54
2021/09/05 01:37:09;;;;;;;;;24.00;20.25;;;;;25.67;53.71;101255.16;5079642;27;51140;-54
2021/09/05 01:39:34;;;;;;;;;29.00;24.75;;;;;25.66;53.83;101261.78;5089026;27;51088;-52
2021/09/05 01:41:59;;;;;;;;;21.50;21.25;;;;;25.65;53.72;101269.25;5075740;27;51449;-55
2021/09/05 01:44:25;;;;;;;;;19.00;17.00;;;;;25.64;53.66;101270.34;5075695;27;51251;-53
2021/09/05 01:46:51;;;;;;;;;25.25;24.75;;;;;25.65;53.67;101279.53;5055170;28;51152;-51
2021/09/05 01:49:16;;;;;;;;;19.25;19.25;;;;;25.64;53.68;101275.91;5053350;28;51231;-55
2021/09/05 01:51:42;;;;;;;;;24.00;21.50;;;;;25.63;53.75;101274.19;5055305;28;51164;-56
2021/09/05 01:54:09;;;;;;;;;23.00;21.25;;;;;25.63;53.31;101285.28;5054777;28;50983;-54
2021/09/05 01:56:35;;;;;;;;;31.00;23.50;;;;;25.63;53.50;101279.75;5065928;28;51083;-53
2021/09/05 01:59:01;;;;;;;;;24.25;21.50;;;;;25.62;53.59;101283.59;5067127;27;51138;-55
2021/09/05 02:01:28;;;;;;;;;23.00;21.75;;;;;25.63;53.70;101285.28;5057600;28;52359;-52
2021/09/05 02:03:54;;;;;;;;;18.25;17.25;;;;;25.61;53.50;101279.16;5060173;27;51025;-55
2021/09/05 02:06:20;;;;;;;;;20.75;19.00;;;;;25.60;53.38;101281.09;5055131;28;51497;-56
2021/09/05 02:08:46;;;;;;;;;21.00;20.50;;;;;25.60;53.51;101285.78;5055441;27;51302;-51
2021/09/05 02:11:12;;;;;;;;;19.25;19.25;;;;;25.54;53.18;101272.94;5055098;28;51063;-55
2021/09/05 02:13:38;;;;;;;;;22.50;18.75;;;;;25.59;53.59;101275.78;5054911;28;51167;-54
2021/09/05 02:16:04;;;;;;;;;19.00;18.00;;;;;25.58;53.25;101282.44;5055561;28;51250;-56
2021/09/05 02:18:29;;;;;;;;;24.25;22.00;;;;;25.57;53.45;101272.41;5058778;28;51322;-55
2021/09/05 02:20:55;;;;;;;;;19.50;19.00;;;;;25.56;53.13;101268.81;5074781;27;51093;-56
2021/09/05 02:23:21;;;;;;;;;20.00;18.00;;;;;25.57;53.28;101269.66;5056637;27;52780;-55
2021/09/05 02:25:46;;;;;;;;;19.25;15.75;;;;;25.56;53.60;101277.13;5054367;28;51125;-55
2021/09/05 02:28:12;;;;;;;;;19.50;19.50;;;;;25.55;53.25;101281.00;5073969;28;51116;-55
2021/09/05 02:30:37;;;;;;;;;17.75;16.25;;;;;25.55;53.52;101271.84;5076322;27;51238;-54
2021/09/05 02:33:04;;;;;;;;;24.25;19.50;;;;;25.54;53.21;101273.75;5076069;27;51731;-55
2021/09/05 02:35:29;;;;;;;;;17.75;16.00;;;;;25.53;53.22;101272.09;5068414;27;51579;-55
2021/09/05 02:37:55;;;;;;;;;21.50;21.25;;;;;25.54;53.35;101272.94;5072371;27;50999;-55
2021/09/05 02:40:20;;;;;;;;;17.00;15.50;;;;;25.53;53.22;101273.97;5078082;27;51427;-56
2021/09/05 02:42:45;;;;;;;;;17.75;16.75;;;;;25.52;53.02;101275.91;5077075;27;52892;-55
2021/09/05 02:45:11;;;;;;;;;20.50;19.25;;;;;25.52;53.27;101283.41;5081096;27;51024;-55
2021/09/05 02:47:36;;;;;;;;;19.00;17.00;;;;;25.51;53.10;101277.00;5084868;27;51158;-52
2021/09/05 02:50:03;;;;;;;;;19.25;17.50;;;;;25.50;52.92;101275.31;5091841;27;51111;-56
2021/09/05 02:52:29;;;;;;;;;23.75;22.50;;;;;25.50;53.26;101272.56;5096549;27;51104;-55
2021/09/05 02:54:54;;;;;;;;;22.00;19.50;;;;;25.50;53.16;101275.31;5096751;27;51104;-55
2021/09/05 02:57:19;;;;;;;;;22.25;18.50;;;;;25.49;53.21;101281.13;5088136;27;51176;-55
2021/09/05 02:59:45;;;;;;;;;26.00;22.25;;;;;25.49;53.24;101279.19;5078421;27;51539;-56
2021/09/05 03:02:10;;;;;;;;;18.75;18.00;;;;;25.50;52.97;101277.25;5079834;27;51919;-55
2021/09/05 03:04:35;;;;;;;;;20.50;18.50;;;;;25.47;52.77;101284.16;5085267;27;51495;-56
2021/09/05 03:07:01;;;;;;;;;20.75;20.00;;;;;25.47;53.22;101278.59;5084666;27;51086;-56
2021/09/05 03:09:26;;;;;;;;;19.00;17.25;;;;;25.47;52.85;101283.31;5097522;27;51286;-56
2021/09/05 03:11:52;;;;;;;;;19.75;15.25;;;;;25.48;53.34;101276.66;5094013;27;51711;-56
2021/09/05 03:14:18;;;;;;;;;19.75;17.75;;;;;25.46;52.87;101278.84;5079225;27;51512;-56
2021/09/05 03:16:43;;;;;;;;;19.25;16.00;;;;;25.47;53.11;101272.22;5078760;27;51343;-56
2021/09/05 03:19:09;;;;;;;;;19.50;18.00;;;;;25.45;52.98;101275.25;5084990;27;51370;-53
2021/09/05 03:21:36;;;;;;;;;19.00;18.00;;;;;25.46;52.68;101270.53;5097908;27;52051;-56
2021/09/05 03:24:01;;;;;;;;;20.00;18.50;;;;;25.45;52.86;101274.41;5097306;27;51092;-56
2021/09/05 03:26:26;;;;;;;;;20.25;17.00;;;;;25.45;53.04;101272.47;5093466;27;51086;-56
2021/09/05 03:28:52;;;;;;;;;17.75;16.75;;;;;25.45;53.01;101278.00;5097500;27;51057;-54
2021/09/05 03:31:17;;;;;;;;;17.00;17.00;;;;;25.43;53.08;101269.09;5088583;27;51964;-55
2021/09/05 03:33:42;;;;;;;;;20.00;18.50;;;;;25.44;52.87;101273.56;5095879;27;50988;-55
2021/09/05 03:36:08;;;;;;;;;16.00;14.75;;;;;25.42;52.48;101270.16;5091738;27;51101;-55
2021/09/05 03:38:33;;;;;;;;;17.00;14.75;;;;;25.43;52.47;101268.22;5086714;27;50957;-56
2021/09/05 03:40:59;;;;;;;;;12.75;12.75;;;;;25.42;52.71;101269.31;5096709;27;51308;-56
2021/09/05 03:43:24;;;;;;;;;16.50;15.50;;;;;25.42;52.69;101266.53;5083335;27;51058;-54
2021/09/05 03:45:50;;;;;;;;;16.25;14.00;;;;;25.41;52.59;101267.63;5061090;28;52517;-55
2021/09/05 03:48:15;;;;;;;;;13.75;12.75;;;;;25.41;52.37;101276.78;5088137;27;51124;-55
2021/09/05 03:50:40;;;;;;;;;15.00;13.50;;;;;25.42;52.40;101275.72;5096627;27;51509;-54
2021/09/05 03:53:06;;;;;;;;;15.25;13.00;;;;;25.40;52.66;101265.94;5096569;27;51050;-55
2021/09/05 03:55:31;;;;;;;;;15.00;13.00;;;;;25.40;52.36;101263.19;5092909;27;52409;-54
2021/09/05 03:57:57;;;;;;;;;14.50;12.50;;;;;25.39;52.14;101267.03;5083097;27;51207;-55
2021/09/05 04:00:23;;;;;;;;;17.25;15.00;;;;;25.38;52.42;101263.44;5077937;27;51905;-55
2021/09/05 04:02:49;;;;;;;;;14.50;13.00;;;;;25.38;52.22;101270.91;5077914;27;50925;-54
2021/09/05 04:05:15;;;;;;;;;13.00;11.00;;;;;25.37;52.21;101272.84;5077100;27;51208;-55
2021/09/05 04:07:44;;;;;;;;;14.75;13.75;;;;;25.33;52.18;101268.88;5079358;27;51115;-56
2021/09/05 04:10:11;;;;;;;;;15.75;14.00;;;;;25.36;52.15;101273.94;5076794;27;51928;-56
2021/09/05 04:12:41;;;;;;;;;14.25;13.75;;;;;25.35;52.32;101272.25;5076874;27;51179;-56
2021/09/05 04:15:08;;;;;;;;;17.25;13.25;;;;;25.34;52.09;101278.88;5081382;27;51194;-55
2021/09/05 04:17:33;;;;;;;;;14.25;14.25;;;;;25.33;52.11;101274.44;5097117;27;51006;-55
2021/09/05 04:19:59;;;;;;;;;16.00;13.75;;;;;25.32;52.22;101279.13;5094931;27;51147;-55
2021/09/05 04:22:24;;;;;;;;;14.00;12.75;;;;;25.31;52.11;101274.66;5094533;27;51875;-54
2021/09/05 04:24:50;;;;;;;;;14.00;11.50;;;;;25.32;51.92;101278.25;5081371;27;50966;-55
2021/09/05 04:27:16;;;;;;;;;13.50;13.50;;;;;25.31;52.00;101280.19;5088338;27;51294;-55
2021/09/05 04:29:41;;;;;;;;;12.25;11.25;;;;;25.30;52.30;101274.91;5096373;27;52012;-53
2021/09/05 04:32:07;;;;;;;;;14.25;13.50;;;;;25.30;52.09;101280.44;5095996;27;51214;-54
2021/09/05 04:34:32;;;;;;;;;14.50;14.50;;;;;25.29;52.07;101285.16;5083879;27;51072;-56
2021/09/05 04:36:58;;;;;;;;;13.00;10.75;;;;;25.29;51.87;101284.31;5076851;27;51100;-56
2021/09/05 04:39:23;;;;;;;;;11.25;11.25;;;;;25.28;51.95;101282.63;5086069;27;51131;-55
2021/09/05 04:41:48;;;;;;;;;13.75;13.50;;;;;25.27;51.93;101284.56;5094444;27;51013;-55
2021/09/05 04:44:14;;;;;;;;;15.50;13.50;;;;;25.28;51.78;101291.78;5086841;27;51560;-55
2021/09/05 04:46:39;;;;;;;;;13.50;12.75;;;;;25.28;51.95;101300.09;5076369;27;50954;-55
2021/09/05 04:49:04;;;;;;;;;16.00;14.25;;;;;25.27;51.83;101298.41;5075819;27;51048;-56
2021/09/05 04:51:30;;;;;;;;;11.75;11.75;;;;;25.27;51.95;101303.97;5088168;27;51060;-56
2021/09/05 04:53:55;;;;;;;;;11.50;11.50;;;;;25.28;51.80;101305.66;5091853;27;51048;-56
2021/09/05 04:56:21;;;;;;;;;16.00;11.75;;;;;25.26;51.77;101299.50;5077044;27;51331;-56
2021/09/05 04:58:46;;;;;;;;;14.25;12.25;;;;;25.27;51.95;101305.91;5096006;27;52428;-55
2021/09/05 05:01:12;;;;;;;;;12.50;11.75;;;;;25.26;51.84;101313.38;5092539;27;51113;-56
2021/09/05 05:03:37;;;;;;;;;14.75;13.50;;;;;25.26;51.72;101312.53;5075623;27;51158;-58
2021/09/05 05:06:06;;;;;;;;;16.75;13.00;;;;;25.26;51.89;101313.38;5076652;27;51254;-57
2021/09/05 05:08:33;;;;;;;;;16.00;13.00;;;;;25.26;52.16;101312.53;5075878;27;51123;-58
2021/09/05 05:10:59;;;;;;;;;14.25;12.75;;;;;25.27;51.98;101316.97;5077425;27;51115;-58
2021/09/05 05:13:25;;;;;;;;;15.25;14.00;;;;;25.26;51.63;101313.38;5084290;27;51403;-58
2021/09/05 05:15:51;;;;;;;;;14.75;12.50;;;;;25.25;51.85;101320.00;5076823;27;51085;-58
2021/09/05 05:18:16;;;;;;;;;15.00;12.25;;;;;25.26;51.82;101331.94;5081457;27;51698;-57
2021/09/05 05:20:41;;;;;;;;;12.25;11.75;;;;;25.25;51.77;101328.31;5092901;27;51385;-57
2021/09/05 05:23:07;;;;;;;;;12.25;12.00;;;;;25.25;51.78;101333.88;5095582;27;51092;-58
2021/09/05 05:25:33;;;;;;;;;15.00;12.50;;;;;25.25;51.72;101342.19;5095915;27;51021;-58
2021/09/05 05:27:59;;;;;;;;;15.00;13.75;;;;;25.25;51.93;101338.56;5086901;27;51891;-58
2021/09/05 05:30:24;;;;;;;;;16.50;14.25;;;;;25.24;51.65;101342.44;5090226;27;51156;-57
2021/09/05 05:32:49;;;;;;;;;14.75;13.25;;;;;25.24;51.38;101343.28;5095109;27;51171;-58
2021/09/05 05:35:15;;;;;;;;;13.50;13.00;;;;;25.24;51.96;101340.50;5095997;27;51101;-57
2021/09/05 05:37:40;;;;;;;;;14.25;13.25;;;;;25.24;51.82;101347.97;5095251;27;51928;-57
2021/09/05 05:40:07;;;;;;;;;13.50;12.75;;;;;25.22;51.74;101342.69;5083259;27;51128;-57
2021/09/05 05:42:32;;;;;;;;;13.25;11.75;;;;;25.21;51.65;101340.97;5075716;27;51190;-57
2021/09/05 05:44:58;;;;;;;;;15.00;11.75;;;;;25.23;51.56;101355.44;5076093;27;51234;-58
2021/09/05 05:47:26;;;;;;;;;15.50;14.00;;;;;25.22;51.57;101342.69;5091256;27;51130;-58
2021/09/05 05:49:51;;;;;;;;;12.75;12.25;;;;;25.23;51.98;101351.84;5088650;27;51110;-56
2021/09/05 05:52:17;;;;;;;;;13.50;12.25;;;;;25.23;51.58;101346.28;5087351;27;51723;-55
2021/09/05 05:54:42;;;;;;;;;11.75;11.00;;;;;25.21;51.73;101346.50;5095380;27;51172;-56
2021/09/05 05:57:07;;;;;;;;;13.25;11.75;;;;;25.21;51.71;101354.81;5095193;27;51818;-57
2021/09/05 05:59:33;;;;;;;;;13.25;13.25;;;;;25.22;51.79;101350.13;5094321;27;51158;-57
2021/09/05 06:01:59;;;;;;;;;12.75;12.75;;;;;25.21;51.83;101349.28;5077825;27;51004;-58
2021/09/05 06:04:25;;;;;;;;;16.75;14.50;;;;;25.20;51.81;101355.91;5078272;27;51320;-56
2021/09/05 06:06:52;;;;;;;;;13.75;12.25;;;;;25.21;51.67;101356.75;5079068;27;51823;-57
2021/09/05 06:09:18;;;;;;;;;13.50;13.00;;;;;25.19;51.70;101357.00;5086640;27;51223;-58
2021/09/05 06:11:43;;;;;;;;;13.50;13.50;;;;;25.19;51.62;101365.31;5088716;27;51179;-55
2021/09/05 06:14:09;;;;;;;;;14.00;14.00;;;;;25.18;51.95;101369.19;5079109;27;51314;-53
2021/09/05 06:16:34;;;;;;;;;18.00;16.00;;;;;25.19;52.08;101365.31;5066738;27;52500;-56
2021/09/05 06:19:00;;;;;;;;;14.00;13.50;;;;;25.19;52.19;101362.53;5088796;27;51006;-53
2021/09/05 06:21:26;;;;;;;;;15.50;13.75;;;;;25.19;52.01;101370.03;5094547;27;51187;-55
2021/09/05 06:23:51;;;;;;;;;14.50;13.50;;;;;25.20;52.03;101380.03;5098820;27;50979;-55
2021/09/05 06:26:16;;;;;;;;;13.50;12.50;;;;;25.20;52.12;101374.47;5095466;27;51109;-56
2021/09/05 06:28:42;;;;;;;;;14.50;14.25;;;;;25.21;52.10;101376.16;5085703;27;51273;-55
2021/09/05 06:31:07;;;;;;;;;16.50;15.50;;;;;25.21;51.99;101390.88;5092218;27;51182;-54
2021/09/05 06:33:32;;;;;;;;;15.75;14.75;;;;;25.19;52.11;101381.97;5088569;27;51077;-53
2021/09/05 06:35:58;;;;;;;;;18.75;17.50;;;;;25.18;52.06;101387.75;5078302;27;51163;-54
2021/09/05 06:38:23;;;;;;;;;15.75;15.50;;;;;25.16;52.00;101390.75;5094509;27;51313;-51
2021/09/05 06:40:48;;;;;;;;;16.75;16.75;;;;;25.15;51.97;101400.16;5083524;27;51035;-55
2021/09/05 06:43:14;;;;;;;;;18.75;15.25;;;;;25.13;51.86;101396.81;5087390;27;51204;-54
2021/09/05 06:45:40;;;;;;;;;12.25;12.25;;;;;25.11;51.66;101398.09;5094223;27;51826;-54
2021/09/05 06:48:05;;;;;;;;;14.75;12.25;;;;;25.09;51.83;101400.28;5097137;27;51090;-54
2021/09/05 06:50:31;;;;;;;;;13.50;13.50;;;;;25.06;51.79;101401.59;5091733;27;51141;-54
2021/09/05 06:52:56;;;;;;;;;13.75;12.75;;;;;25.06;51.85;101407.16;5096705;27;50996;-58
2021/09/05 06:55:21;;;;;;;;;13.50;12.75;;;;;25.06;51.79;101417.41;5081301;27;51095;-58
2021/09/05 06:57:48;;;;;;;;;11.25;11.25;;;;;25.04;51.79;101420.41;5083797;27;51347;-56
2021/09/05 07:00:14;;;;;;;;;14.50;11.50;;;;;25.03;51.76;101424.25;5094842;27;51283;-59
2021/09/05 07:02:39;;;;;;;;;13.00;11.50;;;;;25.03;51.95;101427.88;5093202;27;51370;-59
2021/09/05 07:05:05;;;;;;;;;13.25;13.25;;;;;25.05;52.00;101427.63;5096237;27;51223;-60
2021/09/05 07:07:31;;;;;;;;;14.75;10.75;;;;;25.06;52.04;101437.63;5096619;27;51208;-59
2021/09/05 07:09:56;;;;;;;;;15.25;13.00;;;;;25.06;52.03;101434.88;5095343;27;51127;-59
2021/09/05 07:12:21;;;;;;;;;16.00;14.50;;;;;25.08;52.06;101437.41;5095404;27;51054;-60
2021/09/05 07:14:46;;;;;;;;;14.50;12.00;;;;;25.08;52.07;101438.25;5092189;27;54490;-60
2021/09/05 07:17:12;;;;;;;;;15.00;14.00;;;;;25.09;52.22;101439.09;5101118;27;51257;-59
2021/09/05 07:19:39;;;;;;;;;12.25;10.75;;;;;25.11;51.76;101436.91;5092856;27;51165;-59
2021/09/05 07:22:05;;;;;;;;;14.25;13.00;;;;;25.12;52.15;101435.84;5079073;27;51244;-58
2021/09/05 07:24:30;;;;;;;;;11.25;10.25;;;;;25.14;52.16;101436.44;5092384;27;51727;-60
2021/09/05 07:26:56;;;;;;;;;13.50;11.50;;;;;25.15;52.02;101441.75;5094633;27;51777;-58
2021/09/05 07:29:21;;;;;;;;;15.25;13.00;;;;;25.18;52.46;101441.25;5093673;27;51303;-58
2021/09/05 07:31:46;;;;;;;;;13.75;12.25;;;;;25.20;52.31;101429.94;5094180;27;51321;-58
2021/09/05 07:34:12;;;;;;;;;13.25;13.25;;;;;25.22;52.36;101442.50;5093319;27;51617;-60
2021/09/05 07:36:37;;;;;;;;;13.75;12.75;;;;;25.23;52.20;101435.84;5094795;27;51091;-58
2021/09/05 07:39:03;;;;;;;;;12.00;12.00;;;;;25.25;52.25;101441.16;5093726;27;51346;-58
2021/09/05 07:41:29;;;;;;;;;12.75;10.25;;;;;25.26;52.48;101440.06;5091211;27;51278;-58
2021/09/05 07:43:54;;;;;;;;;11.00;10.00;;;;;25.28;52.14;101443.44;5093375;27;51981;-58
2021/09/05 07:46:20;;;;;;;;;13.50;11.00;;;;;25.31;52.64;101440.19;5092583;27;51265;-58
2021/09/05 07:48:45;;;;;;;;;12.50;11.00;;;;;25.32;52.46;101445.50;5094797;27;51138;-59
2021/09/05 07:51:11;;;;;;;;;14.00;13.50;;;;;25.35;52.35;101449.72;5084919;27;51026;-58
2021/09/05 07:53:36;;;;;;;;;13.50;12.75;;;;;25.37;52.52;101453.09;5085899;27;52712;-58
2021/09/05 07:56:01;;;;;;;;;12.25;11.50;;;;;25.38;52.42;101453.94;5095351;27;51274;-59
2021/09/05 07:58:27;;;;;;;;;13.25;12.50;;;;;25.39;52.56;101462.00;5093291;27;51501;-56
2021/09/05 08:00:53;;;;;;;;;12.25;10.75;;;;;25.39;52.21;101459.25;5065404;27;52180;-57
2021/09/05 08:03:19;;;;;;;;;13.25;12.25;;;;;25.40;52.43;101465.63;5089188;27;51114;-57
2021/09/05 08:05:44;;;;;;;;;14.25;13.50;;;;;25.39;52.31;101461.19;5090893;27;51167;-57
2021/09/05 08:08:09;;;;;;;;;14.50;13.00;;;;;25.39;52.30;101475.88;5082844;27;50971;-58
2021/09/05 08:10:35;;;;;;;;;12.00;12.00;;;;;25.41;52.62;101478.41;5087923;27;51300;-57
2021/09/05 08:13:00;;;;;;;;;12.50;12.50;;;;;25.42;52.42;101478.16;5090158;27;51659;-57
2021/09/05 08:15:26;;;;;;;;;13.75;13.25;;;;;25.43;52.22;101487.34;5092216;27;51119;-55
2021/09/05 08:17:51;;;;;;;;;11.25;11.00;;;;;25.43;52.62;101482.66;5080820;27;51488;-56
2021/09/05 08:20:17;;;;;;;;;16.75;12.75;;;;;25.43;52.53;101476.25;5088666;27;51347;-57
2021/09/05 08:22:45;;;;;;;;;11.50;11.25;;;;;25.44;52.57;101483.50;5094055;27;51139;-56
2021/09/05 08:25:10;;;;;;;;;13.50;12.75;;;;;25.45;52.57;101486.03;5092096;27;51382;-56
2021/09/05 08:27:36;;;;;;;;;13.50;13.50;;;;;25.46;52.59;101486.88;5091250;27;51117;-57
2021/09/05 08:30:01;;;;;;;;;14.50;13.50;;;;;25.46;52.66;101489.66;5091552;27;51356;-57
2021/09/05 08:32:27;;;;;;;;;13.00;12.00;;;;;25.48;52.52;101493.00;5089242;27;51932;-57
2021/09/05 08:34:52;;;;;;;;;14.25;14.25;;;;;25.48;52.38;101493.00;5094741;27;51294;-57
2021/09/05 08:37:17;;;;;;;;;16.00;16.00;;;;;25.48;52.31;101499.41;5093491;27;51149;-56
2021/09/05 08:39:43;;;;;;;;;14.25;12.75;;;;;25.48;52.51;101491.09;5093860;27;50976;-57
2021/09/05 08:42:08;;;;;;;;;14.50;13.25;;;;;25.48;52.13;101496.63;5089247;27;51640;-58
2021/09/05 08:44:33;;;;;;;;;16.75;14.50;;;;;25.48;52.49;101496.63;5085226;27;51218;-58
2021/09/05 08:46:59;;;;;;;;;12.50;12.50;;;;;25.49;52.45;101497.47;5075669;27;51404;-58
2021/09/05 08:49:27;;;;;;;;;14.75;14.75;;;;;25.51;52.55;101484.22;5091167;27;51195;-59
2021/09/05 08:51:56;;;;;;;;;15.00;13.25;;;;;25.52;52.86;101497.00;5094269;27;51124;-58
2021/09/05 08:54:22;;;;;;;;;14.00;13.25;;;;;25.53;52.92;101495.91;5090587;27;51498;-57
2021/09/05 08:56:52;;;;;;;;;17.00;14.00;;;;;25.55;52.49;101485.44;5092452;27;51301;-57
2021/09/05 08:59:18;;;;;;;;;16.75;15.50;;;;;25.55;52.55;101489.06;5085405;27;51235;-56
2021/09/05 09:01:59;;;;;;;;;16.50;13.75;;;;;25.57;52.37;101497.13;5082323;27;51032;-58
2021/09/05 09:04:26;;;;;;;;;14.25;14.25;;;;;25.57;52.51;101495.19;5092017;27;51313;-57
2021/09/05 09:06:51;;;;;;;;;15.50;13.50;;;;;25.58;52.19;101507.13;5093986;27;51047;-57
2021/09/05 09:09:16;;;;;;;;;14.25;12.75;;;;;25.58;52.40;101496.88;5093791;27;51440;-58
2021/09/05 09:11:53;;;;;;;;;16.25;14.75;;;;;25.60;52.43;101493.84;5092397;27;51764;-57
2021/09/05 09:14:37;;;;;;;;;15.50;15.00;;;;;25.61;52.37;101499.16;5075678;27;51115;-57
2021/09/05 09:17:03;;;;;;;;;13.25;11.75;;;;;25.61;52.29;101504.72;5087585;27;51310;-54
2021/09/05 09:19:28;;;;;;;;;12.75;11.25;;;;;25.63;52.17;101490.59;5081732;27;51131;-56
2021/09/05 09:21:56;;;;;;;;;13.50;13.00;;;;;25.62;52.41;101495.28;5075557;27;52735;-57
2021/09/05 09:24:23;;;;;;;;;15.50;13.50;;;;;25.62;52.38;101495.28;5080251;27;51130;-57
2021/09/05 09:26:59;;;;;;;;;15.50;14.75;;;;;25.63;52.32;101496.13;5087106;27;51011;-57
2021/09/05 09:29:25;;;;;;;;;15.75;14.50;;;;;25.64;52.35;101497.84;5081703;27;51330;-57
2021/09/05 09:32:17;;;;;;;;;17.50;14.75;;;;;25.64;52.41;101495.09;5078074;27;51803;-56
2021/09/05 09:34:48;;;;;;;;;15.50;14.25;;;;;25.63;52.56;101491.44;5084954;27;51040;-57
2021/09/05 09:37:20;;;;;;;;;16.00;16.00;;;;;25.63;52.38;101491.44;5082624;27;51021;-56
2021/09/05 09:39:48;;;;;;;;;15.00;15.00;;;;;25.64;52.39;101486.75;5082989;27;50915;-56
2021/09/05 09:42:30;;;;;;;;;16.50;13.75;;;;;25.64;52.39;101489.53;5092409;27;51921;-57
2021/09/05 09:44:55;;;;;;;;;14.75;14.00;;;;;25.65;52.01;101487.59;5078878;27;51422;-58
2021/09/05 09:47:21;;;;;;;;;14.25;12.50;;;;;25.65;52.23;101491.22;5083365;27;51330;-56
2021/09/05 09:49:48;;;;;;;;;16.50;14.25;;;;;25.65;52.25;101494.00;5095414;27;51000;-57
2021/09/05 09:52:15;;;;;;;;;16.50;14.50;;;;;25.65;52.48;101494.00;5095098;27;51289;-56
2021/09/05 09:54:42;;;;;;;;;17.00;17.00;;;;;25.67;51.98;101490.97;5085019;27;51360;-55
2021/09/05 09:57:08;;;;;;;;;13.50;13.50;;;;;25.66;51.98;101495.69;5075061;27;51195;-55
2021/09/05 09:59:33;;;;;;;;;12.50;12.25;;;;;25.66;51.95;101495.69;5075150;27;51354;-55
2021/09/05 10:01:58;;;;;;;;;15.25;14.50;;;;;25.66;52.25;101484.59;5082669;27;51138;-56
2021/09/05 10:04:24;;;;;;;;;16.75;13.75;;;;;25.68;52.29;101487.13;5092529;27;51651;-55
2021/09/05 10:06:50;;;;;;;;;13.75;12.25;;;;;25.69;52.09;101486.03;5094716;27;51197;-56
2021/09/05 10:09:18;;;;;;;;;13.75;11.75;;;;;25.69;51.91;101486.88;5093986;27;50925;-56
2021/09/05 10:11:43;;;;;;;;;13.75;12.00;;;;;25.69;51.97;101484.09;5080553;27;51811;-56
2021/09/05 10:14:10;;;;;;;;;15.00;13.75;;;;;25.71;51.66;101490.25;5093189;27;51198;-54
2021/09/05 10:16:36;;;;;;;;;13.25;11.25;;;;;25.71;52.01;101484.72;5094122;27;51064;-56
2021/09/05 10:19:04;;;;;;;;;11.75;11.75;;;;;25.72;51.80;101480.00;5094247;27;51415;-55
2021/09/05 10:21:31;;;;;;;;;17.00;13.50;;;;;25.73;51.74;101478.91;5094678;27;51495;-56
2021/09/05 10:23:58;;;;;;;;;11.50;9.75;;;;;25.74;51.70;101484.25;5093145;27;51008;-56
2021/09/05 10:26:24;;;;;;;;;9.00;8.75;;;;;25.76;51.97;101481.22;5092112;27;51075;-53
2021/09/05 10:28:52;;;;;;;;;8.25;8.25;;;;;25.76;52.10;101476.53;5083432;27;51295;-55
2021/09/05 10:31:22;;;;;;;;;14.50;14.25;;;;;25.76;51.89;101478.47;5074031;27;52472;-58
2021/09/05 10:33:47;;;;;;;;;12.25;9.75;;;;;25.77;51.86;101480.97;5075372;27;51308;-58
2021/09/05 10:36:15;;;;;;;;;11.00;11.00;;;;;25.77;51.66;101491.25;5081847;27;51171;-57
2021/09/05 10:38:43;;;;;;;;;11.00;9.50;;;;;25.78;51.86;101479.91;5092890;27;51094;-57
2021/09/05 10:41:20;;;;;;;;;15.25;13.25;;;;;25.79;52.06;101480.75;5081966;27;52230;-57
2021/09/05 10:43:48;;;;;;;;;13.00;11.75;;;;;25.80;51.85;101480.50;5084518;27;51200;-58
2021/09/05 10:46:22;;;;;;;;;12.25;11.00;;;;;25.81;51.67;101473.84;5092728;27;51291;-58
2021/09/05 10:48:51;;;;;;;;;13.50;9.50;;;;;25.82;52.05;101477.47;5092779;27;51248;-58
2021/09/05 10:51:21;;;;;;;;;13.50;13.50;;;;;25.83;52.13;101477.22;5084092;27;51979;-58
2021/09/05 10:53:57;;;;;;;;;14.25;14.00;;;;;25.84;52.18;101467.81;5093373;27;51200;-57
2021/09/05 10:56:25;;;;;;;;;13.75;12.25;;;;;25.86;52.32;101473.97;5097240;27;51127;-57
2021/09/05 10:58:59;;;;;;;;;11.50;9.50;;;;;25.88;52.17;101482.06;5076395;27;51179;-57
2021/09/05 11:01:30;;;;;;;;;10.50;10.50;;;;;25.89;52.60;101467.09;5094595;27;51294;-58
2021/09/05 11:04:11;;;;;;;;;11.75;11.75;;;;;25.92;52.56;101468.53;5083787;27;51284;-58
2021/09/05 11:06:58;;;;;;;;;15.75;11.25;;;;;25.92;52.48;101465.75;5092760;27;51363;-58